Hanna, Canada
Current Conditions -  °F | °C
As of 3:00 PM on Thursday 20 Nov 2014 (Local Time) from CYQF Reporting Station
Broken Clouds Broken Clouds  
Wind Chill: 30°   Ceiling: 9000
Heat Index: 34°   Visibility: 15mi
Dew Point: 27°   Wind: 5mph
Humidity: 75%   Direction: 190°S
Pressure: 29.58"   Gusts: NA
Location:  51.64°N, 111.94°W
Report Text: CYQF 202200Z 19004KT 15SM BKN090 BKN250 01/M03 A2958 RMK AC5CI2 SLP063
Loading
Personal Weather Stations






























Interactive Weather Map New forecast layout! Learn more

10-Day Weather Forecast

Advertisements
Track Severe Weather on mobile